This is the latest recevied weather packets stored in our database for station/object KF4ERV-4. If no packets are shown the sender has not sent any weather packets the latest 10 day(s).
| Time | Temp. | Humidity | Pressure | Rain* | Wind** | Luminosity | Snow |
|---|---|---|---|---|---|---|---|
| 1778115001 | 14.44° C | 84% | 1015 hPa | 0 mm | - | - | - |
| 1778114886 | 14.44° C | 83% | 1015 hPa | 0 mm | - | - | - |
| 1778114692 | 14.44° C | 83% | 1015 hPa | 0 mm | - | - | - |
| 1778114394 | 14.44° C | 84% | 1015 hPa | 0 mm | - | - | - |
| 1778114305 | 15° C | 84% | 1015 hPa | 0 mm | - | - | - |
| 1778114304 | 14.44° C | 83% | 1015 hPa | 0 mm | - | - | - |
| 1778114097 | 14.44° C | 83% | 1015 hPa | 0 mm | - | - | - |
| 1778114014 | 14.44° C | 83% | 1015 hPa | 0 mm | - | - | - |
| 1778113800 | 14.44° C | 83% | 1015 hPa | 0 mm | - | - | - |
| 1778113724 | 15° C | 85% | 1015 hPa | 0 mm | - | - | - |
| 1778113492 | 15° C | 85% | 1015 hPa | 0 mm | - | - | - |
| 1778113436 | 15° C | 84% | 1015 hPa | 0 mm | - | - | - |
| 1778113195 | 15° C | 84% | 1015 hPa | 0 mm | - | - | - |
| 1778113145 | 15° C | 83% | 1015 hPa | 0 mm | - | - | - |
| 1778112898 | 15° C | 83% | 1015 hPa | 0 mm | - | - | - |
| 1778112564 | 15° C | 82% | 1015 hPa | 0 mm | - | - | - |
| 1778112333 | 15° C | 78% | 1015 hPa | 0 mm | - | - | - |
| 1778111725 | 15° C | 80% | 1014.9 hPa | 0 mm | - | - | - |
| 1778111694 | 15° C | 80% | 1014.9 hPa | 0 mm | - | - | - |
| 1778111393 | 15° C | 78% | 1015 hPa | 0 mm | - | - | - |
| 1778111154 | 15° C | 74% | 1014 hPa | 0 mm | - | - | - |
| 1778111129 | 15° C | 75% | 1014.2 hPa | 0 mm | - | - | - |
| 1778111095 | 15° C | 75% | 1014.2 hPa | 0 mm | - | - | - |
| 1778111086 | 15° C | 74% | 1014 hPa | 0 mm | - | - | - |
| 1778110831 | 15° C | 74% | 1014 hPa | 0 mm | - | - | - |
* Rain latest hour (hover to see other rain measurements)
** Current wind speed in m/s (hover to see current wind gust speed)